| Date | Time | Temp. (oF) | Dew Point (oF) | Rel. Hum. (%) | Press. (in.) | Wind Dir. | Wind Speed (mph) | Hourly Rainfall (in.) |
|
|---|---|---|---|---|---|---|---|---|---|
| 1 | 03/01 | 00:00 | 26 | 26 | 100 | 29.54 | NW | 3 | 0.00 |
| 2 | 02/28 | 23:00 | 26 | 26 | 100 | 29.55 | WNW | 1 | 0.05 |
| 3 | 02/28 | 22:00 | 27 | 27 | 100 | 29.56 | N | 2 | 0.01 |
| 4 | 02/28 | 21:00 | 27 | 27 | 100 | 29.56 | N | 5 | 0.01 |
| 5 | 02/28 | 20:00 | 27 | 27 | 100 | 29.57 | NNE | 6 | 0.01 |
| 6 | 02/28 | 19:00 | 27 | 27 | 100 | 29.59 | N | 8 | 0.01 |
| 7 | 02/28 | 18:00 | 28 | 27 | 100 | 29.61 | NNE | 8 | 0.02 |
| 8 | 02/28 | 17:00 | 28 | 27 | 100 | 29.63 | NE | 5 | 0.01 |
| 9 | 02/28 | 16:00 | 28 | 27 | 100 | 29.64 | NNE | 7 | 0.02 |
| 10 | 02/28 | 15:00 | 29 | 28 | 100 | 29.67 | NNE | 7 | 0.02 |
| 11 | 02/28 | 14:00 | 29 | 28 | 99 | 29.70 | NE | 13 | 0.01 |
| 12 | 02/28 | 13:00 | 29 | 28 | 96 | 29.75 | NE | 7 | 0.00 |
| 13 | miss | miss | miss | miss | miss | miss | miss | miss | |
| 14 | 02/28 | 12:28 | 29 | 26 | 91 | 29.78 | ENE | 9 | 0.00 |
| 15 | miss | miss | miss | miss | miss | miss | miss | miss | |
| 16 | 02/28 | 12:26 | 30 | 27 | 90 | 29.78 | ENE | 10 | 0.00 |
| 17 | miss | miss | miss | miss | miss | miss | miss | miss | |
| 18 | 02/28 | 12:24 | 30 | 27 | 90 | 29.79 | NE | 7 | 0.00 |
| 19 | miss | miss | miss | miss | miss | miss | miss | miss | |
| 20 | 02/28 | 12:22 | 30 | 27 | 89 | 29.79 | NE | 9 | 0.00 |
| 21 | miss | miss | miss | miss | miss | miss | miss | miss | |
| 22 | 02/28 | 12:20 | 30 | 27 | 89 | 29.79 | NE | 8 | 0.00 |
| 23 | miss | miss | miss | miss | miss | miss | miss | miss | |
| 24 | 02/28 | 12:18 | 30 | 26 | 88 | 29.80 | NNE | 5 | 0.00 |
| 25 | miss | miss | miss | miss | miss | miss | miss | miss | |
| 26 | 02/28 | 12:17 | 30 | 26 | 88 | 29.80 | ENE | 8 | 0.00 |
| 27 | miss | miss | miss | miss | miss | miss | miss | miss | |
| 28 | 02/28 | 12:17 | 30 | 26 | 88 | 29.80 | ENE | 8 | 0.00 |
| 29 | miss | miss | miss | miss | miss | miss | miss | miss | |
| 30 | 02/28 | 12:17 | 30 | 26 | 88 | 29.80 | ENE | 8 | 0.00 |
| 31 | miss | miss | miss | miss | miss | miss | miss | miss | |
| 32 | 02/28 | 12:17 | 30 | 26 | 88 | 29.80 | ENE | 8 | 0.00 |
| 33 | miss | miss | miss | miss | miss | miss | miss | miss | |
| 34 | 02/28 | 12:17 | 30 | 26 | 88 | 29.80 | ENE | 8 | 0.00 |
| 35 | miss | miss | miss | miss | miss | miss | miss | miss | |
| 36 | 02/28 | 12:17 | 30 | 26 | 88 | 29.80 | ENE | 8 | 0.00 |
| 37 | 02/28 | 12:00 | 31 | 26 | 82 | 29.81 | ESE | 7 | 0.00 |
| 38 | 02/28 | 11:00 | 32 | 25 | 77 | 29.86 | NE | 16 | 0.00 |
| 39 | 02/28 | 10:00 | 30 | 24 | 79 | 29.90 | ENE | 15 | 0.00 |
| 40 | 02/28 | 09:00 | 29 | 22 | 77 | 29.93 | NE | 9 | 0.00 |
| 41 | 02/28 | 08:00 | 28 | 20 | 74 | 29.96 | E | 4 | 0.00 |
| 42 | 02/28 | 07:00 | 27 | 20 | 77 | 29.97 | E | 5 | 0.00 |
| 43 | 02/28 | 06:00 | 27 | 20 | 76 | 29.97 | NE | 2 | 0.00 |
| 44 | 02/28 | 05:00 | 27 | 20 | 76 | 29.99 | ENE | 5 | 0.00 |
| 45 | 02/28 | 04:00 | 27 | 21 | 78 | 30.02 | NE | 4 | 0.00 |
| 46 | 02/28 | 03:00 | 26 | 19 | 76 | 30.06 | ESE | 0 | 0.00 |
| 47 | 02/28 | 02:00 | 26 | 18 | 73 | 30.08 | NE | 2 | 0.00 |
| 48 | 02/28 | 01:00 | 26 | 18 | 72 | 30.09 | E | 1 | 0.00 |
| 49 | 02/28 | 00:00 | 26 | 17 | 69 | 30.13 | NE | 1 | -0.18 |
| 50 | 02/27 | 23:00 | 26 | 16 | 67 | 30.15 | SSE | 0 | 0.00 |
| 51 | 02/27 | 22:00 | 26 | 16 | 68 | 30.17 | ESE | 2 | 0.00 |
| 52 | 02/27 | 21:00 | 27 | 16 | 65 | 30.18 | NE | 0 | 0.00 |
| 53 | 02/27 | 20:00 | 28 | 16 | 61 | 30.19 | E | 2 | 0.00 |
| 54 | 02/27 | 19:00 | 29 | 14 | 54 | 30.22 | ESE | 1 | 0.00 |
| 55 | 02/27 | 18:00 | 31 | 14 | 50 | 30.21 | ENE | 1 | 0.00 |
| 56 | 02/27 | 17:00 | 31 | 13 | 47 | 30.22 | WNW | 1 | 0.00 |
| 57 | 02/27 | 16:00 | 32 | 14 | 49 | 30.22 | S | 5 | 0.00 |
| 58 | 02/27 | 15:00 | 33 | 15 | 48 | 30.22 | S | 2 | 0.00 |
| 59 | 02/27 | 14:00 | 31 | 14 | 50 | 30.29 | S | 3 | 0.00 |
| 60 | 02/27 | 13:00 | 32 | 15 | 50 | 30.31 | ENE | 4 | 0.00 |
| 61 | 02/27 | 12:00 | 30 | 14 | 52 | 30.34 | W | 3 | 0.00 |
| 62 | 02/27 | 11:00 | 27 | 12 | 54 | 30.37 | NNE | 5 | 0.00 |
| 63 | 02/27 | 10:00 | 26 | 12 | 56 | 30.38 | NNW | 6 | 0.00 |
| 64 | 02/27 | 09:00 | 22 | 10 | 60 | 30.39 | NNW | 7 | 0.00 |
| 65 | 02/27 | 08:00 | 21 | 12 | 68 | 30.39 | N | 6 | 0.00 |
| 66 | 02/27 | 07:00 | 19 | 12 | 74 | 30.37 | NNW | 2 | 0.00 |
| 67 | 02/27 | 06:00 | 20 | 12 | 72 | 30.35 | NE | 0 | 0.00 |
| 68 | 02/27 | 05:00 | 21 | 12 | 69 | 30.34 | NNE | 0 | 0.00 |
| 69 | 02/27 | 04:00 | 22 | 12 | 66 | 30.33 | NNW | 3 | 0.00 |
| 70 | 02/27 | 03:00 | 24 | 12 | 62 | 30.32 | N | 4 | 0.00 |
| 71 | 02/27 | 02:00 | 26 | 12 | 56 | 30.31 | NNW | 3 | 0.00 |
| 72 | 02/27 | 01:00 | 26 | 13 | 60 | 30.30 | NW | 4 | 0.00 |
| 73 | 02/27 | 00:00 | 28 | 14 | 57 | 30.27 | NW | 7 | 0.00 |